Time;durP1;ratioP1;P1;durP2;ratioP2;P2;SDS_P1;SDS_P2;PMS_P1;PMS_P2;Temp;Humidity;BMP_temperature;BMP_pressure;BME280_temperature;BME280_humidity;BME280_pressure;Samples;Min_cycle;Max_cycle;Signal;HPM_P1;HPM_P2
2022/01/26 00:06:36;;;;;;;57.38;18.88;;;;;;;0.04;45.43;101539.78;5043069;28;20465;-78
2022/01/26 00:09:04;;;;;;;48.58;17.25;;;;;;;0.08;45.23;101544.13;5055925;28;20055;-77
2022/01/26 00:11:31;;;;;;;39.65;19.35;;;;;;;-0.18;45.63;101528.84;5058669;28;20060;-77
2022/01/26 00:13:58;;;;;;;52.72;19.83;;;;;;;-0.10;45.47;101534.84;5058205;28;20021;-82
2022/01/26 00:16:41;;;;;;;37.33;18.75;;;;;;;-0.09;45.52;101555.06;5057934;28;20021;-79
2022/01/26 00:19:20;;;;;;;42.38;18.92;;;;;;;-0.14;45.72;101554.31;5058170;28;20513;-79
2022/01/26 00:21:51;;;;;;;40.08;18.65;;;;;;;-0.12;45.82;101552.50;5040744;28;20028;-80
2022/01/26 00:27:27;;;;;;;48.13;19.23;;;;;;;-0.13;46.17;101543.72;5056833;28;20037;-79
2022/01/26 00:31:24;;;;;;;41.15;18.83;;;;;;;-0.24;45.89;101540.44;5059450;28;20029;-78
2022/01/26 00:33:07;;;;;;;40.72;19.23;;;;;;;-0.32;45.91;101537.09;5053914;28;20029;-81
2022/01/26 00:41:07;;;;;;;37.63;19.75;;;;;;;-0.60;47.01;101531.53;5053845;28;20501;-80
2022/01/26 00:43:35;;;;;;;44.67;20.08;;;;;;;-0.57;46.97;101520.91;5053965;28;20422;-80
2022/01/26 00:46:02;;;;;;;48.75;20.25;;;;;;;-0.55;46.59;101542.00;5053757;28;20032;-80
2022/01/26 00:48:31;;;;;;;43.10;19.95;;;;;;;-0.59;47.14;101532.41;5053819;28;20025;-80
2022/01/26 00:50:59;;;;;;;39.40;19.58;;;;;;;-0.57;47.22;101533.25;5053597;28;20017;-80
2022/01/26 00:53:32;;;;;;;39.22;18.83;;;;;;;-0.66;46.92;101515.81;5052975;28;20051;-79
2022/01/26 00:55:57;;;;;;;39.60;18.40;;;;;;;-0.53;47.43;101532.28;5054408;28;20430;-79
2022/01/26 00:58:23;;;;;;;42.63;19.35;;;;;;;-0.62;47.16;101532.50;5057644;28;20025;-79
2022/01/26 01:00:49;;;;;;;42.72;18.80;;;;;;;-0.63;47.51;101523.69;5062366;28;20044;-79
2022/01/26 01:03:14;;;;;;;32.00;18.13;;;;;;;-0.53;47.27;101528.78;5041378;28;20029;-79
2022/01/26 01:05:54;;;;;;;40.88;19.80;;;;;;;-0.58;47.43;101526.22;5060064;28;20021;-79
2022/01/26 01:08:23;;;;;;;38.03;19.33;;;;;;;-0.47;47.23;101526.88;5061507;28;20025;-79
2022/01/26 01:10:50;;;;;;;41.60;19.27;;;;;;;-0.42;47.32;101518.81;5044088;28;20071;-78
2022/01/26 01:13:20;;;;;;;40.85;20.83;;;;;;;-0.43;47.10;101512.69;5059738;28;20037;-79
2022/01/26 01:15:47;;;;;;;42.25;19.00;;;;;;;-0.35;46.55;101521.31;5058705;28;20032;-79
2022/01/26 01:31:27;;;;;;;40.60;18.05;;;;;;;-0.45;47.00;101509.19;5009497;28;20418;-78
2022/01/26 01:33:52;;;;;;;39.30;19.30;;;;;;;-0.47;46.96;101507.50;5053319;28;20108;-78
2022/01/26 01:36:20;;;;;;;47.22;21.50;;;;;;;-0.73;47.28;101508.06;5053271;28;20179;-79
2022/01/26 01:38:46;;;;;;;39.28;19.65;;;;;;;-0.96;47.51;101512.94;5035822;28;20423;-80
2022/01/26 01:41:12;;;;;;;46.03;21.17;;;;;;;-0.91;47.82;101506.66;5053288;28;20017;-78
2022/01/26 01:43:37;;;;;;;45.50;20.92;;;;;;;-0.96;47.75;101503.25;5052844;28;20063;-78
2022/01/26 01:46:03;;;;;;;38.25;19.13;;;;;;;-0.96;47.94;101505.03;5052662;28;20032;-78
2022/01/26 01:48:31;;;;;;;45.95;19.95;;;;;;;-0.80;47.71;101512.63;5052854;28;20025;-78
2022/01/26 01:51:00;;;;;;;40.53;20.38;;;;;;;-0.86;47.61;101506.59;5053413;28;20021;-79
2022/01/26 01:53:45;;;;;;;38.58;18.25;;;;;;;-1.03;47.62;101499.00;5034927;28;20048;-79
2022/01/26 01:56:14;;;;;;;39.80;18.15;;;;;;;-1.29;48.29;101512.72;5051488;28;20029;-78
2022/01/26 01:58:41;;;;;;;47.00;20.15;;;;;;;-1.36;48.84;101503.16;5035035;28;20063;-79
2022/01/26 02:01:08;;;;;;;40.47;21.20;;;;;;;-1.49;48.95;101492.84;5052960;28;20386;-79
2022/01/26 02:03:34;;;;;;;39.83;19.85;;;;;;;-1.33;49.24;101499.59;5052522;28;20029;-78
2022/01/26 02:06:00;;;;;;;45.47;22.10;;;;;;;-1.31;49.06;101496.03;5055175;28;20540;-78
2022/01/26 02:08:26;;;;;;;42.80;20.58;;;;;;;-1.29;48.97;101491.63;5056441;28;20498;-78
2022/01/26 02:10:51;;;;;;;42.10;20.02;;;;;;;-1.55;49.38;101492.97;5056021;28;20021;-78
2022/01/26 02:21:57;;;;;;;46.88;20.25;;;;;;;-1.26;49.41;101490.69;5043875;28;20052;-80
2022/01/26 02:54:39;;;;;;;43.40;20.75;;;;;;;-0.67;47.90;101450.69;5035392;28;20112;-81
2022/01/26 03:01:50;;;;;;;45.50;23.23;;;;;;;-0.56;47.83;101450.47;5036914;28;20472;-79
2022/01/26 03:06:57;;;;;;;98.20;44.20;;;;;;;-0.81;48.32;101459.81;5035516;28;20116;-79
2022/01/26 03:09:28;;;;;;;57.40;26.92;;;;;;;-0.79;48.08;101445.69;5035664;28;20087;-80
2022/01/26 03:11:55;;;;;;;47.53;22.33;;;;;;;-0.83;48.36;101436.09;5035410;28;20029;-80
2022/01/26 03:16:53;;;;;;;41.97;20.45;;;;;;;-0.68;48.21;101448.09;5035605;28;20025;-79
2022/01/26 03:19:31;;;;;;;39.55;19.33;;;;;;;-0.67;48.36;101439.25;5035154;28;20029;-80
2022/01/26 03:30:01;;;;;;;40.13;19.35;;;;;;;-0.95;48.77;101440.78;5035991;28;20086;-80
2022/01/26 03:35:28;;;;;;;43.42;19.23;;;;;;;-0.87;48.81;101449.41;5035333;28;20530;-78
2022/01/26 03:37:55;;;;;;;42.92;19.40;;;;;;;-0.93;48.59;101436.31;5034155;28;20128;-78
2022/01/26 03:40:30;;;;;;;50.33;24.38;;;;;;;-0.90;49.19;101442.41;5034750;28;20375;-78
2022/01/26 03:42:56;;;;;;;38.88;20.02;;;;;;;-0.85;48.94;101439.66;5034865;28;20030;-78
2022/01/26 03:45:21;;;;;;;40.67;21.92;;;;;;;-0.87;48.85;101444.13;5016635;28;20028;-78
2022/01/26 03:47:47;;;;;;;45.55;20.08;;;;;;;-0.80;48.53;101432.53;5034629;28;20021;-78
2022/01/26 03:50:12;;;;;;;42.20;20.50;;;;;;;-0.69;49.06;101443.72;5034287;28;20112;-80
2022/01/26 03:52:37;;;;;;;43.17;21.15;;;;;;;-0.72;49.14;101435.84;5033851;28;20029;-79
2022/01/26 03:55:04;;;;;;;39.22;20.08;;;;;;;-0.67;49.12;101439.25;5034776;28;20025;-78
2022/01/26 03:57:30;;;;;;;44.47;20.60;;;;;;;-0.67;48.80;101444.53;5033998;28;20041;-79
2022/01/26 03:59:55;;;;;;;42.88;19.88;;;;;;;-0.68;48.94;101440.19;5033737;28;20025;-79
2022/01/26 04:02:21;;;;;;;40.92;19.92;;;;;;;-0.75;49.16;101439.44;5033991;28;20376;-78
2022/01/26 04:04:52;;;;;;;42.90;20.60;;;;;;;-0.74;49.12;101435.03;5034277;28;20184;-79
2022/01/26 04:07:17;;;;;;;42.33;21.05;;;;;;;-0.85;49.40;101439.66;5032515;28;20040;-80
2022/01/26 04:09:43;;;;;;;41.47;22.45;;;;;;;-0.85;49.89;101444.94;5034565;28;20021;-78
2022/01/26 04:12:09;;;;;;;50.45;21.08;;;;;;;-0.91;49.46;101439.78;5034448;28;20053;-78
2022/01/26 04:14:35;;;;;;;57.10;21.90;;;;;;;-0.88;49.75;101426.53;5035604;28;20025;-79
2022/01/26 04:17:01;;;;;;;56.38;23.20;;;;;;;-0.73;49.66;101424.41;5035035;28;20056;-79
2022/01/26 04:19:29;;;;;;;42.97;20.20;;;;;;;-0.82;49.48;101429.91;5040775;28;20022;-79
2022/01/26 04:24:40;;;;;;;40.90;19.23;;;;;;;-0.63;49.78;101435.66;5035019;28;20128;-79
2022/01/26 04:27:17;;;;;;;46.22;21.70;;;;;;;-0.50;49.29;101431.81;5016930;28;20403;-79
2022/01/26 04:29:42;;;;;;;41.70;19.45;;;;;;;-0.53;49.43;101429.25;5034758;28;20079;-78
2022/01/26 04:32:09;;;;;;;44.25;21.45;;;;;;;-0.43;49.87;101428.16;5034049;28;20394;-78
2022/01/26 04:34:35;;;;;;;39.42;21.67;;;;;;;-0.40;49.47;101421.91;5034164;28;20080;-80
2022/01/26 04:37:14;;;;;;;46.95;23.65;;;;;;;-0.18;49.16;101428.41;5034059;28;20049;-79
2022/01/26 04:39:47;;;;;;;43.95;21.67;;;;;;;-0.38;49.17;101420.97;5034363;28;20121;-79
2022/01/26 04:42:22;;;;;;;;;;;;;;;-0.26;48.90;101428.59;5016668;28;20056;-79
2022/01/26 04:44:56;;;;;;;49.30;21.08;;;;;;;-0.19;49.13;101432.84;5034268;28;19913;-79
2022/01/26 04:47:21;;;;;;;45.28;20.10;;;;;;;-0.18;49.34;101434.56;5033988;28;20022;-80
2022/01/26 04:49:47;;;;;;;53.20;21.75;;;;;;;-0.24;49.49;101437.34;5033800;28;20025;-78
2022/01/26 04:52:12;;;;;;;39.83;20.27;;;;;;;-0.13;49.41;101430.03;5034331;28;20029;-80
2022/01/26 04:54:38;;;;;;;38.97;20.75;;;;;;;-0.01;49.57;101440.31;5033645;28;20537;-80
2022/01/26 04:57:03;;;;;;;44.00;19.65;;;;;;;-0.04;49.11;101426.28;5034008;28;20476;-80
2022/01/26 04:59:29;;;;;;;49.25;20.55;;;;;;;0.15;48.62;101434.63;5033831;28;20091;-78
2022/01/26 05:01:54;;;;;;;47.15;22.23;;;;;;;0.19;49.08;101438.91;5033552;28;20040;-79
2022/01/26 05:04:20;;;;;;;45.72;20.95;;;;;;;0.24;48.82;101442.31;5033897;28;20021;-78
2022/01/26 05:06:45;;;;;;;54.78;22.08;;;;;;;0.32;49.18;101432.41;5032777;28;20024;-78
2022/01/26 05:09:10;;;;;;;49.53;21.17;;;;;;;0.33;48.63;101434.16;5032744;28;20023;-78
2022/01/26 05:11:39;;;;;;;43.63;22.55;;;;;;;0.36;49.10;101434.94;5033040;28;20021;-78
2022/01/26 05:14:05;;;;;;;40.08;21.38;;;;;;;0.33;48.42;101427.09;5015772;28;20135;-78
2022/01/26 05:16:31;;;;;;;45.70;20.75;;;;;;;0.40;48.47;101433.94;5015556;28;20075;-80
2022/01/26 05:18:57;;;;;;;45.55;20.63;;;;;;;0.47;48.60;101435.50;5033430;28;20017;-78
2022/01/26 05:21:25;;;;;;;42.22;20.58;;;;;;;0.53;48.66;101429.19;5015799;28;20059;-78
2022/01/26 05:23:51;;;;;;;41.35;19.20;;;;;;;0.57;48.85;101433.47;5033357;28;20124;-80
2022/01/26 05:26:17;;;;;;;40.35;20.70;;;;;;;0.55;48.86;101433.50;5033156;28;20034;-79
2022/01/26 05:28:43;;;;;;;46.53;20.27;;;;;;;0.72;48.91;101430.41;5038497;28;20127;-78
2022/01/26 05:31:08;;;;;;;53.75;21.90;;;;;;;0.84;48.15;101429.19;5045267;28;20447;-78
2022/01/26 05:33:34;;;;;;;43.22;20.35;;;;;;;0.87;48.42;101437.91;5043692;28;20500;-77
2022/01/26 05:35:59;;;;;;;63.95;21.33;;;;;;;0.77;48.33;101417.91;5047143;28;20049;-77
2022/01/26 05:38:25;;;;;;;52.47;22.20;;;;;;;0.88;48.51;101421.13;5037790;28;20021;-77
2022/01/26 05:40:51;;;;;;;43.13;21.20;;;;;;;1.00;48.15;101426.06;5024004;28;20025;-78
2022/01/26 05:43:17;;;;;;;55.45;22.90;;;;;;;0.98;48.05;101421.69;5039143;28;20100;-78
2022/01/26 05:45:48;;;;;;;59.58;23.42;;;;;;;1.09;47.94;101436.38;5032849;28;20087;-78
2022/01/26 05:48:14;;;;;;;51.72;22.52;;;;;;;1.20;48.02;101432.53;5026944;28;20031;-78
2022/01/26 05:50:45;;;;;;;64.32;22.98;;;;;;;1.25;48.07;101435.91;5054980;28;20120;-78
2022/01/26 05:53:11;;;;;;;49.95;23.20;;;;;;;1.25;47.68;101428.84;5072383;28;20110;-77
2022/01/26 05:55:36;;;;;;;49.90;23.45;;;;;;;1.37;47.85;101430.25;5072493;28;20379;-77
2022/01/26 05:58:02;;;;;;;70.97;29.70;;;;;;;1.38;47.61;101421.38;5075514;28;20095;-77
2022/01/26 06:00:27;;;;;;;47.70;24.77;;;;;;;1.55;47.79;101445.56;5072843;28;20055;-78
2022/01/26 06:02:53;;;;;;;66.05;23.38;;;;;;;1.57;47.66;101438.44;5072176;28;20542;-77
2022/01/26 06:05:19;;;;;;;54.83;21.60;;;;;;;1.65;47.52;101447.03;5049522;28;20033;-77
2022/01/26 06:07:44;;;;;;;62.05;23.90;;;;;;;1.63;48.11;101430.28;5031999;28;20071;-78
2022/01/26 06:10:09;;;;;;;126.40;42.22;;;;;;;1.66;48.63;101446.09;5040121;28;20044;-78
2022/01/26 06:12:35;;;;;;;60.95;27.33;;;;;;;1.56;49.47;101444.69;5034287;28;20021;-77
2022/01/26 06:15:03;;;;;;;56.97;28.05;;;;;;;1.48;50.37;101441.38;5013837;28;20029;-78
2022/01/26 06:17:28;;;;;;;39.88;21.38;;;;;;;1.40;50.55;101436.31;5031758;28;20053;-77
2022/01/26 06:19:54;;;;;;;50.30;26.38;;;;;;;1.35;51.24;101432.06;5026285;28;20021;-78
2022/01/26 06:22:19;;;;;;;46.70;23.58;;;;;;;1.37;51.57;101432.91;5071940;28;20076;-78
2022/01/26 06:24:45;;;;;;;54.03;26.60;;;;;;;1.36;52.02;101421.44;5053954;28;20363;-78
2022/01/26 06:27:10;;;;;;;75.45;29.15;;;;;;;1.45;52.11;101444.13;5054849;28;20036;-78
2022/01/26 06:29:36;;;;;;;55.38;26.25;;;;;;;1.53;52.17;101431.47;5046160;28;20025;-77
2022/01/26 06:32:01;;;;;;;50.40;23.70;;;;;;;1.60;52.01;101439.22;5022064;28;20032;-76
2022/01/26 06:34:27;;;;;;;54.22;25.73;;;;;;;1.55;52.18;101429.69;5042953;28;20620;-79
2022/01/26 06:36:52;;;;;;;52.88;24.83;;;;;;;1.68;52.66;101431.03;5051239;28;20041;-79
2022/01/26 06:39:18;;;;;;;51.97;26.75;;;;;;;1.71;52.71;101430.94;5048529;28;20393;-78
2022/01/26 06:41:54;;;;;;;54.90;26.17;;;;;;;1.77;52.56;101430.72;5046058;28;20017;-78
2022/01/26 06:44:31;;;;;;;52.50;24.67;;;;;;;1.85;52.61;101431.34;5039333;28;20024;-77
2022/01/26 06:47:33;;;;;;;52.88;25.05;;;;;;;1.98;53.04;101434.47;5034648;28;20022;-78
2022/01/26 06:49:42;;;;;;;48.53;23.63;;;;;;;2.12;52.88;101442.81;5039699;28;20367;-78
2022/01/26 06:52:07;;;;;;;53.35;27.73;;;;;;;2.23;52.71;101434.50;5045119;28;20029;-79
2022/01/26 06:54:33;;;;;;;53.80;27.25;;;;;;;2.18;52.88;101427.56;5040682;28;20028;-78
2022/01/26 06:56:58;;;;;;;56.55;27.35;;;;;;;2.06;53.17;101438.56;5025716;28;20037;-79
2022/01/26 06:59:24;;;;;;;70.97;29.48;;;;;;;2.02;53.45;101428.97;5041149;28;20505;-77
2022/01/26 07:01:51;;;;;;;54.42;27.58;;;;;;;2.18;53.54;101432.84;5041509;28;20437;-77
2022/01/26 07:04:16;;;;;;;54.72;29.77;;;;;;;2.21;53.90;101426.56;5047924;28;20032;-80
2022/01/26 07:06:42;;;;;;;65.80;33.65;;;;;;;2.37;53.53;101427.78;5055457;28;20025;-82
2022/01/26 07:09:07;;;;;;;69.85;33.45;;;;;;;2.39;53.83;101428.59;5046461;28;20029;-80
2022/01/26 07:11:33;;;;;;;48.25;26.35;;;;;;;2.39;53.82;101425.06;5049069;28;20017;-79
2022/01/26 07:14:00;;;;;;;48.13;26.55;;;;;;;2.35;53.83;101412.84;5040538;28;20017;-77
2022/01/26 07:21:54;;;;;;;71.30;26.92;;;;;;;2.42;54.45;101425.81;5040472;28;20057;-75
2022/01/26 07:24:19;;;;;;;52.67;26.83;;;;;;;2.39;54.53;101409.13;5053273;28;20029;-77
2022/01/26 07:26:46;;;;;;;64.13;28.02;;;;;;;2.42;54.81;101419.66;5054483;28;20070;-77
2022/01/26 07:29:13;;;;;;;56.40;27.63;;;;;;;2.50;54.68;101407.84;5054262;28;20028;-79
2022/01/26 07:31:43;;;;;;;49.40;26.67;;;;;;;2.51;54.87;101409.56;5054377;28;20032;-77
2022/01/26 07:34:14;;;;;;;60.78;27.65;;;;;;;2.55;54.93;101410.34;5054801;28;20029;-83
2022/01/26 07:36:41;;;;;;;60.42;29.50;;;;;;;2.60;55.17;101403.94;5064593;28;20053;-78
2022/01/26 07:39:11;;;;;;;51.80;27.23;;;;;;;2.74;54.93;101403.44;5072107;28;20033;-79
2022/01/26 07:41:36;;;;;;;48.08;23.48;;;;;;;2.77;53.79;101413.06;5054905;28;20079;-80
2022/01/26 07:44:03;;;;;;;53.97;27.35;;;;;;;2.63;53.56;101410.94;5048974;28;20028;-80
2022/01/26 07:46:28;;;;;;;51.40;24.95;;;;;;;2.54;53.52;101416.56;5016932;28;20467;-79
2022/01/26 07:48:54;;;;;;;44.83;24.00;;;;;;;2.50;53.06;101412.28;5035101;28;20032;-79
2022/01/26 07:51:20;;;;;;;48.08;24.23;;;;;;;2.58;52.81;101426.16;5034310;28;20025;-78
2022/01/26 07:53:46;;;;;;;62.20;25.10;;;;;;;2.47;52.39;101428.34;5034396;28;20040;-78
2022/01/26 07:56:12;;;;;;;94.53;39.05;;;;;;;2.45;52.38;101424.84;5036779;28;20411;-79
2022/01/26 07:58:39;;;;;;;64.63;30.05;;;;;;;2.40;52.51;101426.81;5041322;28;20048;-78
2022/01/26 08:01:05;;;;;;;56.70;26.77;;;;;;;2.36;52.41;101425.16;5033026;28;20029;-80
2022/01/26 08:03:33;;;;;;;51.08;24.85;;;;;;;2.40;52.38;101418.84;5043947;28;20047;-78
2022/01/26 08:06:05;;;;;;;50.67;23.90;;;;;;;2.46;52.37;101426.59;5043371;28;20792;-78
2022/01/26 08:08:31;;;;;;;;;;;;;;;2.57;52.13;101424.41;5043991;28;20029;-79
2022/01/26 08:10:58;;;;;;;45.67;22.17;;;;;;;2.54;51.94;101419.22;5042911;28;19913;-82
2022/01/26 08:13:24;;;;;;;50.55;23.80;;;;;;;2.59;51.77;101428.78;5037400;28;20025;-80
2022/01/26 08:15:49;;;;;;;42.60;20.75;;;;;;;2.64;51.33;101431.25;5036572;28;20512;-79
2022/01/26 08:18:15;;;;;;;46.05;23.83;;;;;;;2.74;51.00;101427.34;5026346;28;20051;-78
2022/01/26 08:20:41;;;;;;;54.35;24.48;;;;;;;2.86;50.90;101416.25;5054131;28;20032;-78
2022/01/26 08:23:07;;;;;;;53.70;24.80;;;;;;;2.83;50.23;101426.13;5047109;28;20017;-78
2022/01/26 08:25:32;;;;;;;46.45;23.38;;;;;;;2.86;49.90;101420.72;5044626;28;20025;-78
2022/01/26 08:28:08;;;;;;;55.47;22.23;;;;;;;2.85;49.06;101422.50;5033300;28;20052;-77
2022/01/26 08:30:37;;;;;;;49.33;23.85;;;;;;;2.95;48.88;101426.56;5040838;28;20021;-79
2022/01/26 08:33:04;;;;;;;46.38;23.55;;;;;;;2.94;48.31;101414.19;5041609;28;20017;-81
2022/01/26 08:35:30;;;;;;;42.55;23.38;;;;;;;3.08;47.84;101419.84;5052846;28;20033;-79
2022/01/26 08:37:55;;;;;;;46.45;23.33;;;;;;;2.93;47.41;101407.16;5033391;28;20507;-81
2022/01/26 08:40:21;;;;;;;63.60;24.10;;;;;;;2.98;46.73;101410.50;5033492;28;20479;-81
2022/01/26 08:42:46;;;;;;;75.22;24.58;;;;;;;3.01;47.28;101406.84;5034071;28;20025;-80
2022/01/26 08:45:12;;;;;;;53.03;24.90;;;;;;;3.08;46.52;101400.38;5034502;28;20029;-79
2022/01/26 08:47:37;;;;;;;43.90;23.13;;;;;;;3.24;46.64;101396.22;5033679;28;20033;-78
2022/01/26 08:50:04;;;;;;;46.38;23.67;;;;;;;3.33;45.80;101384.34;5033734;28;20082;-79
2022/01/26 08:52:31;;;;;;;44.08;22.25;;;;;;;3.37;45.22;101385.94;5033194;28;20036;-79
2022/01/26 08:54:56;;;;;;;53.67;22.40;;;;;;;3.41;44.86;101374.28;5033347;28;20034;-79
2022/01/26 08:57:22;;;;;;;44.67;20.05;;;;;;;3.37;44.24;101389.47;5041646;28;20028;-80
2022/01/26 08:59:47;;;;;;;39.05;19.48;;;;;;;3.43;44.44;101396.34;5038727;28;20058;-81
2022/01/26 09:02:13;;;;;;;43.47;18.80;;;;;;;3.35;43.92;101394.00;5041023;28;20018;-79
2022/01/26 09:04:38;;;;;;;50.55;19.40;;;;;;;3.27;44.21;101391.63;5034117;28;20025;-81
2022/01/26 09:07:04;;;;;;;39.60;19.48;;;;;;;3.40;43.83;101401.78;5032314;28;20021;-80
2022/01/26 09:09:33;;;;;;;38.55;18.15;;;;;;;3.27;43.69;101399.59;5016733;28;20041;-79
2022/01/26 09:12:05;;;;;;;49.65;20.75;;;;;;;3.32;43.87;101395.91;5017462;28;20025;-79
2022/01/26 09:14:30;;;;;;;45.47;22.42;;;;;;;3.43;43.90;101401.66;5040941;28;20029;-78
2022/01/26 09:16:56;;;;;;;60.20;22.42;;;;;;;3.50;43.98;101397.84;5048550;28;20023;-84
2022/01/26 09:19:32;;;;;;;50.28;22.45;;;;;;;3.63;43.43;101397.28;5067400;28;20035;-79
2022/01/26 09:22:00;;;;;;;40.90;20.20;;;;;;;3.60;43.52;101400.06;5008167;28;20036;-88
2022/01/26 09:24:28;;;;;;;41.28;19.10;;;;;;;3.58;43.81;101383.28;5014186;28;20041;-80
2022/01/26 09:26:53;;;;;;;33.97;17.85;;;;;;;3.63;43.58;101388.44;4998928;28;20029;-84
2022/01/26 09:29:19;;;;;;;40.50;18.95;;;;;;;3.75;43.65;101387.94;4997312;28;20095;-84
2022/01/26 09:31:47;;;;;;;38.47;18.77;;;;;;;3.91;43.30;101383.72;5017074;28;20021;-92
2022/01/26 09:34:21;;;;;;;47.05;20.00;;;;;;;4.02;43.23;101384.13;5015549;28;20041;-88
2022/01/26 09:36:47;;;;;;;54.80;22.40;;;;;;;4.12;43.24;101379.28;5006832;28;20041;-85
2022/01/26 09:39:14;;;;;;;49.92;23.63;;;;;;;4.12;43.09;101377.50;5042607;28;20029;-83
2022/01/26 09:41:40;;;;;;;44.78;20.02;;;;;;;4.30;42.63;101376.69;5054254;28;20127;-81
2022/01/26 09:44:07;;;;;;;44.90;20.45;;;;;;;4.44;42.75;101367.19;5026895;28;20025;-79
2022/01/26 09:46:33;;;;;;;41.22;19.63;;;;;;;4.46;42.21;101366.22;5031835;28;20041;-79
2022/01/26 09:49:00;;;;;;;38.38;20.75;;;;;;;4.46;42.32;101355.56;5034916;28;20075;-77
2022/01/26 09:51:25;;;;;;;42.22;19.23;;;;;;;4.47;42.05;101351.09;5053528;28;20013;-81
2022/01/26 09:54:00;;;;;;;42.70;17.70;;;;;;;4.55;42.07;101364.94;5053422;28;20040;-81
2022/01/26 09:56:26;;;;;;;40.50;18.67;;;;;;;4.61;42.05;101348.69;5058946;28;20032;-79
2022/01/26 09:58:52;;;;;;;37.08;19.10;;;;;;;4.71;41.70;101339.34;5063836;28;20383;-78
2022/01/26 10:01:18;;;;;;;33.40;17.75;;;;;;;4.81;41.48;101351.28;5035676;28;20108;-78
2022/01/26 10:03:44;;;;;;;31.98;17.73;;;;;;;4.73;41.47;101345.47;5053408;28;20021;-81
2022/01/26 10:06:20;;;;;;;36.95;19.05;;;;;;;4.61;41.93;101324.72;5037984;28;20053;-84
2022/01/26 10:19:07;;;;;;;35.35;19.25;;;;;;;4.83;41.63;101312.97;5070081;28;20034;-83
2022/01/26 10:21:33;;;;;;;50.72;21.70;;;;;;;4.86;41.61;101299.50;5037417;28;20336;-82
2022/01/26 10:24:08;;;;;;;50.17;23.92;;;;;;;5.01;41.38;101321.06;5033301;28;20061;-81
2022/01/26 10:26:33;;;;;;;55.65;27.05;;;;;;;4.99;41.64;101317.59;5037134;28;20491;-84
2022/01/26 10:29:02;;;;;;;56.70;22.15;;;;;;;5.21;41.36;101319.16;5036358;28;20021;-82
2022/01/26 10:31:34;;;;;;;36.50;20.05;;;;;;;5.21;40.97;101324.50;5038067;28;20032;-81
2022/01/26 10:34:14;;;;;;;43.97;18.95;;;;;;;5.16;40.92;101313.19;5054995;28;20055;-79
2022/01/26 10:36:46;;;;;;;39.40;18.27;;;;;;;5.07;41.07;101313.63;5054966;28;20411;-81
2022/01/26 10:39:31;;;;;;;42.45;20.50;;;;;;;5.11;41.59;101309.00;5057178;28;20076;-82
2022/01/26 10:42:03;;;;;;;36.05;19.02;;;;;;;5.13;41.19;101302.69;5056518;28;20458;-80
2022/01/26 10:44:36;;;;;;;40.42;18.13;;;;;;;5.20;41.21;101305.91;5055405;28;20140;-81
2022/01/26 10:47:05;;;;;;;38.08;19.80;;;;;;;5.22;41.38;101296.91;5056734;28;20561;-82
2022/01/26 10:49:55;;;;;;;41.03;22.38;;;;;;;5.30;40.99;101300.03;5038284;28;20029;-80
2022/01/26 10:54:55;;;;;;;41.65;20.20;;;;;;;5.42;40.75;101295.91;5019423;28;20040;-78
2022/01/26 10:57:21;;;;;;;40.80;20.95;;;;;;;5.49;40.91;101282.22;5042697;28;20089;-81
2022/01/26 10:59:49;;;;;;;54.33;23.15;;;;;;;5.66;41.15;101277.81;5052616;28;20038;-80
2022/01/26 11:02:28;;;;;;;58.55;20.88;;;;;;;5.70;40.11;101285.59;5041807;28;20105;-82
2022/01/26 11:04:54;;;;;;;29.75;15.43;;;;;;;5.73;39.40;101279.22;5036625;28;20032;-80
2022/01/26 11:07:28;;;;;;;42.42;15.35;;;;;;;5.70;39.03;101279.38;5036366;28;20021;-80
2022/01/26 11:09:54;;;;;;;30.95;13.88;;;;;;;5.68;38.84;101286.63;5036627;28;20136;-81
2022/01/26 11:12:28;;;;;;;42.78;16.98;;;;;;;5.83;39.43;101273.34;5035963;28;20070;-81
2022/01/26 11:15:14;;;;;;;53.60;18.63;;;;;;;5.95;39.61;101285.22;5036350;28;20029;-81
2022/01/26 11:17:46;;;;;;;43.08;20.98;;;;;;;5.94;39.51;101283.50;5035449;28;20021;-82
2022/01/26 11:20:30;;;;;;;94.75;24.00;;;;;;;6.00;39.17;101276.03;5041307;28;20510;-84
2022/01/26 11:23:02;;;;;;;36.22;18.83;;;;;;;5.99;39.55;101279.63;5058503;28;20478;-79
2022/01/26 11:25:30;;;;;;;176.80;31.88;;;;;;;6.08;40.13;101266.75;5055172;28;20032;-80
2022/01/26 11:27:57;;;;;;;114.50;24.92;;;;;;;6.15;39.53;101270.81;5054751;28;20024;-80
2022/01/26 11:30:32;;;;;;;116.63;27.63;;;;;;;6.04;39.56;101268.72;5054285;28;20110;-78
2022/01/26 11:33:27;;;;;;;65.55;20.52;;;;;;;6.04;39.49;101260.72;5055366;28;20408;-83
2022/01/26 11:35:55;;;;;;;57.38;20.33;;;;;;;6.04;39.72;101258.06;5051677;28;20037;-78
2022/01/26 11:39:01;;;;;;;49.80;19.83;;;;;;;6.06;39.85;101258.81;5060916;28;20060;-83
2022/01/26 11:46:59;;;;;;;43.38;15.93;;;;;;;5.90;39.51;101236.56;5060302;28;20147;-80
2022/01/26 11:49:33;;;;;;;41.63;17.73;;;;;;;5.78;39.80;101234.50;5061028;28;20024;-79
2022/01/26 11:51:58;;;;;;;43.20;17.27;;;;;;;5.84;39.49;101240.34;5069878;28;20024;-78
2022/01/26 11:54:41;;;;;;;42.92;17.58;;;;;;;5.86;39.45;101235.00;5054317;28;20021;-80
2022/01/26 11:57:13;;;;;;;;;;;;;;;5.79;39.44;101236.22;5047724;28;20410;-78
2022/01/26 11:59:49;;;;;;;38.80;17.15;;;;;;;5.84;40.16;101228.84;5062179;28;20356;-79
2022/01/26 12:05:13;;;;;;;33.08;14.32;;;;;;;5.93;39.33;101217.72;5064399;28;20048;-80
2022/01/26 12:07:57;;;;;;;46.20;20.27;;;;;;;5.89;39.48;101227.69;5073696;28;20107;-79
2022/01/26 12:10:32;;;;;;;34.17;16.13;;;;;;;5.83;39.55;101227.09;5069739;28;20054;-80
2022/01/26 12:13:02;;;;;;;44.67;17.88;;;;;;;5.86;39.43;101211.84;5055449;28;20035;-78
2022/01/26 12:15:40;;;;;;;37.72;16.63;;;;;;;5.99;39.72;101220.06;5054749;28;20048;-77
2022/01/26 12:42:42;;;;;;;28.25;16.10;;;;;;;5.96;38.42;101191.69;5053010;28;20031;-77
2022/01/26 12:45:08;;;;;;;26.63;15.48;;;;;;;5.93;38.81;101202.53;5052843;28;20025;-80
2022/01/26 12:47:34;;;;;;;45.00;18.10;;;;;;;5.91;38.93;101192.88;5052733;28;20028;-78
2022/01/26 12:50:00;;;;;;;36.92;13.70;;;;;;;5.91;38.71;101190.22;5053417;28;20418;-78
2022/01/26 12:52:28;;;;;;;37.17;12.60;;;;;;;5.82;39.50;101193.34;5060197;28;20021;-79
2022/01/26 12:54:53;;;;;;;24.25;12.60;;;;;;;5.89;39.13;101194.78;5072508;28;20033;-78
2022/01/26 12:57:19;;;;;;;30.55;13.20;;;;;;;5.95;38.79;101198.00;5073680;28;20043;-78
2022/01/26 12:59:44;;;;;;;24.65;14.70;;;;;;;5.90;38.90;101208.03;5072903;28;20032;-78
2022/01/26 13:02:10;;;;;;;32.35;14.43;;;;;;;5.97;39.04;101213.91;5053473;28;20546;-78
2022/01/26 13:04:36;;;;;;;45.67;14.85;;;;;;;5.95;39.02;101216.69;5053172;28;20098;-77
2022/01/26 13:07:03;;;;;;;34.17;15.00;;;;;;;6.07;39.07;101211.63;5053253;28;20116;-79
2022/01/26 13:09:41;;;;;;;27.08;13.73;;;;;;;6.01;38.64;101202.13;5052664;28;20036;-78
2022/01/26 13:12:07;;;;;;;26.13;12.32;;;;;;;6.03;38.80;101208.25;5052971;28;20024;-81
2022/01/26 13:14:44;;;;;;;35.30;18.13;;;;;;;5.86;39.12;101201.16;5053517;28;20033;-79
2022/01/26 13:25:33;;;;;;;31.65;13.93;;;;;;;5.45;39.99;101205.06;5071680;28;20107;-81
2022/01/26 13:28:08;;;;;;;36.45;17.25;;;;;;;5.49;40.34;101207.50;5071010;28;20470;-78
2022/01/26 13:30:53;;;;;;;35.05;14.98;;;;;;;5.35;40.37;101191.31;5076714;28;20033;-81
2022/01/26 13:49:52;;;;;;;30.77;14.15;;;;;;;5.51;40.48;101220.75;5053602;28;20029;-81
2022/01/26 13:57:09;;;;;;;36.95;20.33;;;;;;;5.59;40.35;101231.03;5053302;28;20049;-79
2022/01/26 13:59:46;;;;;;;;;;;;;;;5.57;40.47;101240.91;5055194;28;20046;-82
2022/01/26 14:02:12;;;;;;;35.92;17.05;;;;;;;5.45;40.87;101237.06;5057191;28;19913;-79
2022/01/26 14:04:39;;;;;;;28.20;14.82;;;;;;;5.40;40.91;101234.66;5056082;28;20051;-79
2022/01/26 14:07:04;;;;;;;41.17;14.93;;;;;;;5.47;40.77;101251.22;5056545;28;20103;-80
2022/01/26 14:09:29;;;;;;;31.90;13.45;;;;;;;5.41;40.92;101244.34;5056253;28;20048;-77
2022/01/26 14:11:55;;;;;;;25.83;14.13;;;;;;;5.33;40.85;101253.69;5056155;28;20033;-81
2022/01/26 14:14:28;;;;;;;29.75;14.75;;;;;;;5.26;41.37;101255.78;5057153;28;20355;-82